Time;durP1;ratioP1;P1;durP2;ratioP2;P2;SDS_P1;SDS_P2;PMS_P1;PMS_P2;Temp;Humidity;BMP_temperature;BMP_pressure;BME280_temperature;BME280_humidity;BME280_pressure;Samples;Min_cycle;Max_cycle;Signal;HPM_P1;HPM_P2
2022/06/08 00:00:45;;;;;;;;;;;;;;;19.23;61.99;100070.31;5011033;28;7323;-77
2022/06/08 00:03:23;;;;;;;;;;;;;;;19.23;62.16;100074.63;5014569;28;7147;-77
2022/06/08 00:05:51;;;;;;;;;;;;;;;19.21;62.40;100074.63;5030226;28;6887;-77
2022/06/08 00:08:18;;;;;;;;;;;;;;;19.21;62.34;100074.63;5004425;28;6983;-77
2022/06/08 00:10:44;;;;;;;;;;;;;;;19.18;62.07;100066.81;4984202;28;8068;-77
2022/06/08 00:13:09;;;;;;;;;;;;;;;19.17;61.92;100067.69;4996750;28;6887;-77
2022/06/08 00:15:35;;;;;;;;;;;;;;;19.15;61.98;100066.81;5012600;28;7153;-77
2022/06/08 00:18:02;;;;;;;;;;;;;;;19.11;61.70;100054.63;5010602;28;7063;-77
2022/06/08 00:20:28;;;;;;;;;;;;;;;19.09;62.00;100064.16;5010199;28;6875;-77
2022/06/08 00:22:54;;;;;;;;;;;;;;;19.05;62.16;100052.84;5011433;28;6848;-77
2022/06/08 00:25:21;;;;;;;;;;;;;;;19.01;62.04;100053.72;5020850;28;6795;-77
2022/06/08 00:27:47;;;;;;;;;;;;;;;18.96;61.63;100048.44;5009357;28;6812;-77
2022/06/08 00:30:13;;;;;;;;;;;;;;;18.94;61.74;100051.88;5014205;28;6866;-77
2022/06/08 00:32:39;;;;;;;;;;;;;;;18.91;62.14;100049.28;5019806;28;7916;-77
2022/06/08 00:35:06;;;;;;;;;;;;;;;18.87;61.48;100046.63;5014520;28;7241;-77
2022/06/08 00:37:32;;;;;;;;;;;;;;;18.82;62.31;100044.84;5011344;28;6969;-77
2022/06/08 00:39:57;;;;;;;;;;;;;;;18.78;61.96;100043.09;4997510;28;6910;-77
2022/06/08 00:42:25;;;;;;;;;;;;;;;18.75;61.61;100046.53;4996234;28;7599;-77
2022/06/08 00:45:11;;;;;;;;;;;;;;;18.72;62.05;100041.31;5027167;28;7856;-77
2022/06/08 00:48:05;;;;;;;;;;;;;;;18.67;62.16;100037.81;5013181;28;8971;-77
2022/06/08 00:50:40;;;;;;;;;;;;;;;18.65;61.67;100034.34;5011556;28;7056;-77
2022/06/08 00:53:08;;;;;;;;;;;;;;;18.61;62.08;100038.63;5016605;28;6815;-77
2022/06/08 00:55:38;;;;;;;;;;;;;;;18.59;61.78;100032.56;5014183;28;7108;-77
2022/06/08 00:58:29;;;;;;;;;;;;;;;18.57;62.04;100021.28;5014649;28;6884;-77
2022/06/08 01:00:56;;;;;;;;;;;;;;;18.54;62.16;100022.13;5009119;28;6811;-77
2022/06/08 01:03:21;;;;;;;;;;;;;;;18.52;61.65;100031.63;5029380;28;6903;-77
2022/06/08 01:05:59;;;;;;;;;;;;;;;18.49;61.72;100023.78;5010117;28;7001;-77
2022/06/08 01:08:45;;;;;;;;;;;;;;;18.45;61.80;100016.84;5012844;28;7216;-77
2022/06/08 01:11:20;;;;;;;;;;;;;;;18.42;61.93;100020.28;5017432;28;7192;-77
2022/06/08 01:13:46;;;;;;;;;;;;;;;18.40;62.00;100018.56;5011508;28;7095;-77
2022/06/08 01:16:13;;;;;;;;;;;;;;;18.38;61.79;100020.25;5010681;28;7126;-77
2022/06/08 01:18:41;;;;;;;;;;;;;;;18.34;61.99;100014.16;5028112;28;6799;-77
2022/06/08 01:21:42;;;;;;;;;;;;;;;18.32;61.92;100006.38;4995138;28;7117;-77
2022/06/08 01:24:11;;;;;;;;;;;;;;;18.33;62.19;100002.03;5019348;28;6966;-77
2022/06/08 01:26:54;;;;;;;;;;;;;;;18.36;62.42;100007.28;5014592;28;7000;-77
2022/06/08 01:29:59;;;;;;;;;;;;;;;18.40;62.74;99997.78;5007662;28;7208;-77
2022/06/08 01:32:33;;;;;;;;;;;;;;;18.42;62.55;99983.97;5015293;28;8568;-77
2022/06/08 01:35:17;;;;;;;;;;;;;;;18.48;63.00;99987.47;5008241;28;7924;-77
2022/06/08 01:38:17;;;;;;;;;;;;;;;18.52;62.72;99981.44;5014916;28;8483;-77
2022/06/08 01:40:53;;;;;;;;;;;;;;;18.56;62.84;99975.44;5012756;28;6820;-77
2022/06/08 01:44:02;;;;;;;;;;;;;;;18.60;62.46;99970.28;5019356;28;7005;-77
2022/06/08 01:46:42;;;;;;;;;;;;;;;18.62;61.90;99978.06;5031342;28;8117;-77
2022/06/08 01:49:49;;;;;;;;;;;;;;;18.63;61.49;99974.63;5018495;28;8670;-77
2022/06/08 01:52:50;;;;;;;;;;;;;;;18.60;61.54;99959.03;4974614;28;6808;-77
2022/06/08 01:55:28;;;;;;;;;;;;;;;18.56;61.86;99959.88;5010919;28;7081;-77
2022/06/08 01:58:18;;;;;;;;;;;;;;;18.54;62.12;99959.84;5011997;28;7076;-77
2022/06/08 02:01:14;;;;;;;;;;;;;;;18.53;61.80;99960.72;5013086;28;7175;-77
2022/06/08 02:03:53;;;;;;;;;;;;;;;18.55;61.77;99960.72;4999091;28;6819;-77
2022/06/08 02:06:32;;;;;;;;;;;;;;;18.55;61.96;99955.53;5001831;28;8760;-77
2022/06/08 02:09:09;;;;;;;;;;;;;;;18.52;61.91;99955.50;5008743;28;8008;-77
2022/06/08 02:11:44;;;;;;;;;;;;;;;18.50;61.62;99949.44;5027658;28;7318;-77
2022/06/08 02:14:27;;;;;;;;;;;;;;;18.45;61.87;99939.03;5012355;28;6907;-77
2022/06/08 02:17:06;;;;;;;;;;;;;;;18.42;61.71;99937.25;4999403;28;8525;-77
2022/06/08 02:19:52;;;;;;;;;;;;;;;18.41;61.69;99932.06;4996058;28;7349;-77
2022/06/08 02:22:36;;;;;;;;;;;;;;;18.37;61.97;99930.28;5011060;28;6986;-77
2022/06/08 02:25:12;;;;;;;;;;;;;;;18.34;62.15;99925.09;5011714;28;6820;-77
2022/06/08 02:28:00;;;;;;;;;;;;;;;18.32;61.62;99917.28;4997634;28;7077;-77
2022/06/08 02:30:32;;;;;;;;;;;;;;;18.31;62.04;99916.44;5008663;28;7320;-77
2022/06/08 02:36:11;;;;;;;;;;;;;;;18.30;62.09;99908.63;5009083;28;6988;-77
2022/06/08 02:38:44;;;;;;;;;;;;;;;18.29;61.80;99910.34;5015924;28;8446;-77
2022/06/08 02:41:13;;;;;;;;;;;;;;;18.30;61.92;99906.91;5011130;28;6820;-77
2022/06/08 02:43:51;;;;;;;;;;;;;;;18.31;61.97;99907.78;5014521;28;6815;-77
2022/06/08 02:46:39;;;;;;;;;;;;;;;18.31;61.71;99905.19;5020388;28;6804;-78
2022/06/08 02:49:09;;;;;;;;;;;;;;;18.30;62.01;99895.66;5029972;28;7161;-78
2022/06/08 02:51:36;;;;;;;;;;;;;;;18.31;62.28;99890.50;5021636;28;6980;-78
2022/06/08 02:54:13;;;;;;;;;;;;;;;18.32;61.86;99884.44;4990865;28;6884;-78
2022/06/08 02:56:49;;;;;;;;;;;;;;;18.32;61.62;99887.03;5010838;28;6808;-77
2022/06/08 02:59:33;;;;;;;;;;;;;;;18.34;61.82;99887.03;5023494;28;7229;-77
2022/06/08 03:02:44;;;;;;;;;;;;;;;18.33;61.56;99877.50;5028074;28;7357;-77
2022/06/08 03:05:15;;;;;;;;;;;;;;;18.32;61.31;99881.84;5021746;28;6891;-77
2022/06/08 03:07:55;;;;;;;;;;;;;;;18.33;61.68;99882.72;5000032;28;7006;-78
2022/06/08 03:10:24;;;;;;;;;;;;;;;18.32;61.75;99881.84;5005758;28;6796;-77
2022/06/08 03:13:18;;;;;;;;;;;;;;;18.32;61.27;99891.34;5016935;28;6857;-77
2022/06/08 03:15:54;;;;;;;;;;;;;;;18.28;61.26;99897.38;4999948;28;9477;-77
2022/06/08 03:18:20;;;;;;;;;;;;;;;18.27;61.18;99888.72;5005800;28;7329;-77
2022/06/08 03:20:46;;;;;;;;;;;;;;;18.27;61.20;99885.28;5006622;28;7303;-77
2022/06/08 03:23:12;;;;;;;;;;;;;;;18.28;61.17;99874.03;5014673;28;6982;-77
2022/06/08 03:25:38;;;;;;;;;;;;;;;18.31;61.68;99879.25;5011057;28;6787;-78
2022/06/08 03:28:04;;;;;;;;;;;;;;;18.32;61.40;99880.97;5011741;28;8465;-78
2022/06/08 03:30:31;;;;;;;;;;;;;;;18.35;61.58;99890.50;4996990;28;7038;-77
2022/06/08 03:32:56;;;;;;;;;;;;;;;18.38;61.04;99891.41;5003338;28;8752;-77
2022/06/08 03:35:22;;;;;;;;;;;;;;;18.40;61.14;99894.88;4994082;28;7056;-77
2022/06/08 03:37:48;;;;;;;;;;;;;;;18.41;61.45;99886.22;4989105;28;8823;-78
2022/06/08 03:40:14;;;;;;;;;;;;;;;18.44;61.07;99888.84;5028254;28;6922;-77
2022/06/08 03:42:40;;;;;;;;;;;;;;;18.46;61.39;99889.75;4993908;28;7230;-79
2022/06/08 03:45:07;;;;;;;;;;;;;;;18.49;61.44;99885.44;5008542;28;7089;-77
2022/06/08 03:47:41;;;;;;;;;;;;;;;18.52;60.86;99875.06;4993323;28;7208;-77
2022/06/08 03:50:13;;;;;;;;;;;;;;;18.56;61.40;99876.84;5011062;28;7203;-77
2022/06/08 03:52:56;;;;;;;;;;;;;;;18.63;61.54;99880.34;5010826;28;6887;-77
2022/06/08 03:55:25;;;;;;;;;;;;;;;18.70;61.67;99882.97;5017735;28;6815;-77
2022/06/08 03:57:52;;;;;;;;;;;;;;;18.78;61.62;99884.75;5009089;28;6803;-77
2022/06/08 04:00:22;;;;;;;;;;;;;;;18.80;60.95;99883.91;4993370;28;8416;-77
2022/06/08 04:02:50;;;;;;;;;;;;;;;18.84;61.53;99882.22;5010942;28;6828;-77
2022/06/08 04:05:16;;;;;;;;;;;;;;;18.85;61.43;99884.78;5008005;28;7392;-77
2022/06/08 04:07:43;;;;;;;;;;;;;;;18.88;61.54;99886.53;5010924;28;6796;-77
2022/06/08 04:10:10;;;;;;;;;;;;;;;18.90;60.64;99879.63;5009862;28;7093;-77
2022/06/08 04:12:36;;;;;;;;;;;;;;;18.94;61.27;99878.78;5019848;28;7145;-77
2022/06/08 04:15:03;;;;;;;;;;;;;;;18.98;61.06;99872.75;4995609;28;7066;-77
2022/06/08 04:17:29;;;;;;;;;;;;;;;19.07;61.78;99871.94;4987218;28;7008;-78
2022/06/08 04:19:55;;;;;;;;;;;;;;;19.17;61.49;99878.06;4984082;28;6796;-77
2022/06/08 04:22:23;;;;;;;;;;;;;;;19.26;61.67;99872.91;4999715;28;8287;-77
2022/06/08 04:24:49;;;;;;;;;;;;;;;19.40;61.99;99861.69;5018194;28;6819;-77
2022/06/08 04:27:15;;;;;;;;;;;;;;;19.57;62.12;99866.94;5007569;28;6874;-77
2022/06/08 04:29:41;;;;;;;;;;;;;;;19.75;61.81;99866.09;4998628;28;8597;-77
2022/06/08 04:32:11;;;;;;;;;;;;;;;19.94;61.93;99858.34;5009924;28;8071;-78
2022/06/08 04:34:41;;;;;;;;;;;;;;;20.14;61.34;99855.78;4994313;28;6808;-78
2022/06/08 04:37:08;;;;;;;;;;;;;;;20.31;61.21;99855.75;4999899;28;6904;-77
2022/06/08 04:39:33;;;;;;;;;;;;;;;20.47;61.48;99853.13;5011684;28;6889;-77
2022/06/08 04:42:00;;;;;;;;;;;;;;;20.70;61.65;99860.03;5023050;28;7026;-77
2022/06/08 04:44:26;;;;;;;;;;;;;;;20.94;61.71;99849.56;5021430;28;6985;-77
2022/06/08 04:46:52;;;;;;;;;;;;;;;21.21;61.51;99846.88;5012349;28;7234;-77
2022/06/08 04:49:18;;;;;;;;;;;;;;;21.39;60.49;99840.69;4999715;28;7002;-77
2022/06/08 04:51:45;;;;;;;;;;;;;;;21.57;60.09;99837.09;4998369;28;8415;-77
2022/06/08 04:54:11;;;;;;;;;;;;;;;21.68;59.38;99831.84;5000048;28;7002;-77
2022/06/08 04:56:36;;;;;;;;;;;;;;;21.74;58.60;99833.53;5012751;28;6803;-78
2022/06/08 04:59:02;;;;;;;;;;;;;;;21.71;58.02;99834.44;4992138;28;6988;-78
2022/06/08 05:01:28;;;;;;;;;;;;;;;21.63;57.67;99841.41;4997748;28;6977;-78
2022/06/08 05:03:55;;;;;;;;;;;;;;;21.54;57.74;99831.06;5011552;28;6819;-78
2022/06/08 05:06:21;;;;;;;;;;;;;;;21.43;57.59;99834.56;5020342;28;6875;-78
2022/06/08 05:08:47;;;;;;;;;;;;;;;21.35;57.13;99836.38;5017610;28;6795;-78
2022/06/08 05:11:14;;;;;;;;;;;;;;;21.28;57.44;99835.53;5008390;28;6784;-77
2022/06/08 05:13:40;;;;;;;;;;;;;;;21.23;57.54;99826.88;5018609;28;8390;-77
2022/06/08 05:16:07;;;;;;;;;;;;;;;21.21;57.40;99824.28;5017747;28;6941;-79
2022/06/08 05:18:34;;;;;;;;;;;;;;;21.20;57.52;99822.53;5001728;28;7002;-78
2022/06/08 05:20:59;;;;;;;;;;;;;;;21.21;57.79;99813.84;5016403;28;7209;-78
2022/06/08 05:23:31;;;;;;;;;;;;;;;21.22;57.80;99814.72;5010169;28;6815;-79
2022/06/08 05:25:58;;;;;;;;;;;;;;;21.22;57.87;99815.56;5023599;28;6807;-78
2022/06/08 05:28:24;;;;;;;;;;;;;;;21.23;57.58;99811.25;5017544;28;6842;-78
2022/06/08 05:30:50;;;;;;;;;;;;;;;21.22;57.77;99807.75;5013143;28;6962;-78
2022/06/08 05:33:16;;;;;;;;;;;;;;;21.23;57.58;99801.66;5013865;28;6791;-78
2022/06/08 05:35:44;;;;;;;;;;;;;;;21.23;57.52;99801.66;5001930;28;8364;-78
2022/06/08 05:38:10;;;;;;;;;;;;;;;21.26;58.04;99797.34;5022291;28;7074;-78
2022/06/08 05:40:37;;;;;;;;;;;;;;;21.29;58.02;99799.91;5009111;28;6819;-78
2022/06/08 05:43:11;;;;;;;;;;;;;;;21.34;57.85;99792.91;5002426;28;8370;-78
2022/06/08 05:45:38;;;;;;;;;;;;;;;21.39;57.85;99792.91;4997957;28;6950;-78
2022/06/08 05:48:05;;;;;;;;;;;;;;;21.47;57.88;99786.78;5021905;28;6815;-78
2022/06/08 05:50:33;;;;;;;;;;;;;;;21.56;57.73;99787.59;5020081;28;6986;-78
2022/06/08 05:52:59;;;;;;;;;;;;;;;21.64;57.77;99786.66;5019941;28;7151;-78
2022/06/08 05:55:27;;;;;;;;;;;;;;;21.74;57.58;99789.22;4978730;28;7256;-78
2022/06/08 05:57:52;;;;;;;;;;;;;;;21.80;57.75;99778.75;5010240;28;7910;-78
2022/06/08 06:00:23;;;;;;;;;;;;;;;21.88;57.70;99781.28;4987967;28;7653;-79
2022/06/08 06:02:50;;;;;;;;;;;;;;;21.92;57.59;99775.16;5016788;28;6811;-78
2022/06/08 06:05:20;;;;;;;;;;;;;;;21.97;57.39;99778.59;5011973;28;7150;-78
2022/06/08 06:07:46;;;;;;;;;;;;;;;22.02;57.23;99775.94;5029944;28;6812;-78
2022/06/08 06:10:15;;;;;;;;;;;;;;;22.04;57.00;99777.66;5004239;28;6966;-78
2022/06/08 06:12:41;;;;;;;;;;;;;;;22.08;57.20;99770.69;4996717;28;6879;-78
2022/06/08 06:15:11;;;;;;;;;;;;;;;22.15;57.29;99771.47;5007889;28;6799;-77
2022/06/08 06:17:37;;;;;;;;;;;;;;;22.24;57.53;99760.06;5012139;28;7535;-77
2022/06/08 06:20:04;;;;;;;;;;;;;;;22.33;57.24;99760.84;5009212;28;6914;-78
2022/06/08 06:22:33;;;;;;;;;;;;;;;22.41;56.93;99763.38;5012807;28;7030;-78
2022/06/08 06:25:00;;;;;;;;;;;;;;;22.52;57.06;99760.69;5023318;28;6807;-78
2022/06/08 06:27:26;;;;;;;;;;;;;;;22.58;56.80;99760.59;5014389;28;7227;-78
2022/06/08 06:29:52;;;;;;;;;;;;;;;22.64;56.67;99759.63;4997682;28;7086;-78
2022/06/08 06:32:28;;;;;;;;;;;;;;;22.69;56.20;99755.25;5014904;28;6804;-78
2022/06/08 06:34:57;;;;;;;;;;;;;;;22.73;56.68;99758.69;5009549;28;8494;-78
2022/06/08 06:37:23;;;;;;;;;;;;;;;22.76;56.10;99753.41;5002042;28;6804;-78
2022/06/08 06:39:49;;;;;;;;;;;;;;;22.78;55.67;99749.03;5018312;28;6795;-78
2022/06/08 06:42:23;;;;;;;;;;;;;;;22.75;55.65;99741.25;5015725;28;7006;-78
2022/06/08 06:44:51;;;;;;;;;;;;;;;22.74;55.62;99742.13;5005186;28;6882;-78
2022/06/08 06:47:18;;;;;;;;;;;;;;;22.72;55.83;99741.28;5009180;28;6964;-79
2022/06/08 06:49:44;;;;;;;;;;;;;;;22.73;55.88;99746.47;5013791;28;7093;-78
2022/06/08 06:52:12;;;;;;;;;;;;;;;22.72;55.61;99749.13;5032376;28;6804;-78
2022/06/08 06:54:39;;;;;;;;;;;;;;;22.71;55.67;99750.00;5014988;28;6965;-78
2022/06/08 06:57:05;;;;;;;;;;;;;;;22.70;55.75;99751.75;5016427;28;6979;-78
2022/06/08 06:59:31;;;;;;;;;;;;;;;22.72;55.24;99746.50;5005684;28;7339;-78
2022/06/08 07:01:57;;;;;;;;;;;;;;;22.76;55.32;99753.41;5008336;28;7860;-78
2022/06/08 07:04:24;;;;;;;;;;;;;;;22.82;55.54;99749.84;5015064;28;6852;-78
2022/06/08 07:06:49;;;;;;;;;;;;;;;22.89;55.62;99746.28;5015055;28;7097;-78
2022/06/08 07:09:15;;;;;;;;;;;;;;;22.96;55.60;99744.44;5013711;28;7166;-78
2022/06/08 07:11:42;;;;;;;;;;;;;;;23.01;55.16;99743.50;5008890;28;6803;-78
2022/06/08 07:14:19;;;;;;;;;;;;;;;23.09;55.13;99746.03;4999428;28;7174;-78
2022/06/08 07:16:47;;;;;;;;;;;;;;;23.16;54.85;99746.78;5016916;28;6807;-78
2022/06/08 07:19:14;;;;;;;;;;;;;;;23.24;54.66;99749.28;5013039;28;6808;-78
2022/06/08 07:21:41;;;;;;;;;;;;;;;23.30;54.56;99750.09;5034051;28;7158;-78
2022/06/08 07:24:11;;;;;;;;;;;;;;;23.38;54.82;99752.59;5021967;28;7145;-78
2022/06/08 07:26:38;;;;;;;;;;;;;;;23.51;55.07;99747.16;5023572;28;6835;-78
2022/06/08 07:29:05;;;;;;;;;;;;;;;23.70;55.62;99735.50;5008816;28;6812;-78
2022/06/08 07:31:31;;;;;;;;;;;;;;;24.03;55.97;99731.47;4996768;28;8511;-78
2022/06/08 07:33:56;;;;;;;;;;;;;;;24.38;55.19;99727.34;5002544;28;6985;-79
2022/06/08 07:36:22;;;;;;;;;;;;;;;24.75;55.04;99726.59;5012538;28;6808;-78
2022/06/08 07:38:48;;;;;;;;;;;;;;;25.09;54.15;99722.38;5026451;28;6977;-78
2022/06/08 07:41:13;;;;;;;;;;;;;;;25.38;53.82;99718.22;5015279;28;6999;-78
2022/06/08 07:43:39;;;;;;;;;;;;;;;25.62;53.06;99715.91;5005960;28;7577;-79
2022/06/08 07:46:05;;;;;;;;;;;;;;;25.78;52.27;99716.34;5009758;28;6815;-78
2022/06/08 07:51:17;;;;;;;;;;;;;;;26.10;51.81;99706.78;5009036;28;6903;-78
2022/06/08 07:53:43;;;;;;;;;;;;;;;26.31;51.15;99709.75;5014670;28;6784;-79
2022/06/08 07:56:09;;;;;;;;;;;;;;;26.50;50.87;99707.44;5009032;28;6807;-78
2022/06/08 07:58:36;;;;;;;;;;;;;;;26.60;50.27;99713.28;5009835;28;6788;-78
2022/06/08 08:01:01;;;;;;;;;;;;;;;26.70;49.67;99711.22;4997577;28;7290;-78
2022/06/08 08:03:28;;;;;;;;;;;;;;;26.78;49.58;99709.22;5015666;28;6792;-78
2022/06/08 08:05:54;;;;;;;;;;;;;;;26.96;49.73;99710.50;5013927;28;7178;-78
2022/06/08 08:08:20;;;;;;;;;;;;;;;27.22;48.89;99702.69;5001308;28;6963;-78
2022/06/08 08:10:46;;;;;;;;;;;;;;;27.52;48.86;99698.16;4990640;28;7003;-79
2022/06/08 08:13:13;;;;;;;;;;;;;;;27.89;48.61;99695.19;5018522;28;7269;-79
2022/06/08 08:15:42;;;;;;;;;;;;;;;28.35;48.02;99700.63;5014429;28;7198;-79
2022/06/08 08:18:09;;;;;;;;;;;;;;;28.77;46.69;99699.03;4997402;28;6986;-78
2022/06/08 08:20:35;;;;;;;;;;;;;;;28.99;46.54;99691.16;5006880;28;7275;-78
2022/06/08 08:23:01;;;;;;;;;;;;;;;29.06;45.60;99697.03;5015577;28;6807;-77
2022/06/08 08:25:29;;;;;;;;;;;;;;;29.02;45.14;99698.97;5015180;28;6796;-77
2022/06/08 08:27:57;;;;;;;;;;;;;;;28.87;44.97;99700.41;5020746;28;7155;-77
2022/06/08 08:30:27;;;;;;;;;;;;;;;28.63;44.18;99697.78;5014381;28;7232;-78
2022/06/08 08:32:53;;;;;;;;;;;;;;;28.41;44.49;99693.34;4992683;28;8415;-78
2022/06/08 08:35:21;;;;;;;;;;;;;;;28.38;44.62;99698.72;5014503;28;6783;-78
2022/06/08 08:37:47;;;;;;;;;;;;;;;28.39;44.22;99682.00;5016894;28;7079;-77
2022/06/08 08:40:33;;;;;;;;;;;;;;;28.46;44.46;99687.03;5011276;28;6796;-77
2022/06/08 08:42:59;;;;;;;;;;;;;;;28.48;44.28;99685.19;5015602;28;6816;-77
2022/06/08 08:45:32;;;;;;;;;;;;;;;28.39;43.85;99679.38;5010596;28;6803;-77
2022/06/08 08:48:09;;;;;;;;;;;;;;;28.32;43.42;99675.25;5011421;28;6980;-77
2022/06/08 08:51:15;;;;;;;;;;;;;;;28.29;43.89;99677.97;5021296;28;7001;-77
2022/06/08 08:54:28;;;;;;;;;;;;;;;28.25;43.66;99681.66;4998680;28;6865;-77
2022/06/08 08:57:52;;;;;;;;;;;;;;;28.11;43.06;99682.13;5023357;28;9407;-76
2022/06/08 09:00:32;;;;;;;;;;;;;;;27.90;42.66;99683.75;4936130;29;6816;-77
2022/06/08 09:03:15;;;;;;;;;;;;;;;27.70;42.88;99680.91;4934465;29;7274;-76
2022/06/08 09:05:44;;;;;;;;;;;;;;;27.53;42.84;99680.59;4987051;28;6811;-77
2022/06/08 09:08:11;;;;;;;;;;;;;;;27.39;42.83;99684.56;5012514;28;7411;-77
2022/06/08 09:10:38;;;;;;;;;;;;;;;27.29;42.95;99683.16;5013818;28;6795;-77
2022/06/08 09:13:06;;;;;;;;;;;;;;;27.20;42.89;99679.03;4995079;28;7156;-76
2022/06/08 09:15:50;;;;;;;;;;;;;;;27.14;43.11;99680.09;5009780;28;6899;-77
2022/06/08 09:18:40;;;;;;;;;;;;;;;27.11;43.15;99684.59;5005128;28;9465;-76
2022/06/08 09:21:31;;;;;;;;;;;;;;;27.10;43.14;99677.63;5010693;28;6812;-76
2022/06/08 09:24:17;;;;;;;;;;;;;;;27.14;43.17;99676.63;5011041;28;6811;-76
2022/06/08 09:26:44;;;;;;;;;;;;;;;27.21;42.95;99680.75;5009518;28;6808;-76
2022/06/08 09:29:20;;;;;;;;;;;;;;;27.28;43.04;99679.66;5007286;28;7234;-76
2022/06/08 09:31:48;;;;;;;;;;;;;;;27.30;43.05;99687.50;4999525;28;6939;-76
2022/06/08 09:34:24;;;;;;;;;;;;;;;27.26;43.28;99678.84;5017678;28;6807;-76
2022/06/08 09:37:24;;;;;;;;;;;;;;;27.15;42.91;99678.34;5019886;28;6795;-76
2022/06/08 09:39:54;;;;;;;;;;;;;;;27.02;42.62;99683.97;5008322;28;6977;-76
2022/06/08 09:42:33;;;;;;;;;;;;;;;26.87;42.63;99681.81;4996161;28;7231;-76
2022/06/08 09:45:39;;;;;;;;;;;;;;;26.67;42.78;99685.94;5001687;28;7177;-76
2022/06/08 09:51:28;;;;;;;;;;;;;;;26.38;42.73;99679.78;5018904;28;7151;-75
2022/06/08 09:54:55;;;;;;;;;;;;;;;26.21;42.85;99688.13;5028537;28;6898;-76
2022/06/08 09:57:41;;;;;;;;;;;;;;;25.98;43.01;99691.34;5021039;28;6828;-76
2022/06/08 10:00:30;;;;;;;;;;;;;;;25.81;43.26;99694.44;5028797;28;6835;-76
2022/06/08 10:03:07;;;;;;;;;;;;;;;25.63;43.22;99696.63;5009466;28;6808;-76
2022/06/08 10:06:06;;;;;;;;;;;;;;;25.46;44.05;99702.28;5017939;28;6803;-76
2022/06/08 10:09:08;;;;;;;;;;;;;;;25.22;44.09;99709.84;5015765;28;7246;-77
2022/06/08 10:12:12;;;;;;;;;;;;;;;24.86;44.90;99715.88;5014972;28;6985;-77
2022/06/08 10:15:02;;;;;;;;;;;;;;;24.39;45.92;99713.34;5013385;28;6815;-77
2022/06/08 10:17:50;;;;;;;;;;;;;;;23.97;47.00;99714.13;5012071;28;7250;-77
2022/06/08 10:20:36;;;;;;;;;;;;;;;23.62;47.35;99719.09;4998731;28;8428;-77
2022/06/08 10:23:24;;;;;;;;;;;;;;;23.32;48.73;99720.44;4997714;28;7086;-77
2022/06/08 10:26:11;;;;;;;;;;;;;;;23.11;49.50;99728.56;5020668;28;7266;-77
2022/06/08 10:29:03;;;;;;;;;;;;;;;22.88;50.15;99727.13;5015454;28;6995;-77
2022/06/08 10:31:49;;;;;;;;;;;;;;;22.70;50.73;99728.25;5012237;28;7387;-77
2022/06/08 10:34:21;;;;;;;;;;;;;;;22.54;51.17;99722.34;5012472;28;6824;-76
2022/06/08 10:36:54;;;;;;;;;;;;;;;22.45;51.87;99725.03;5009055;28;6811;-76
2022/06/08 10:39:22;;;;;;;;;;;;;;;22.39;52.31;99725.09;4975873;28;8337;-76
2022/06/08 10:45:23;;;;;;;;;;;;;;;22.28;53.06;99722.63;5011149;28;6811;-76
2022/06/08 10:48:13;;;;;;;;;;;;;;;22.24;53.40;99721.78;5009464;28;6959;-76
2022/06/08 10:51:03;;;;;;;;;;;;;;;22.17;53.55;99717.50;5003071;28;7029;-76
2022/06/08 10:56:34;;;;;;;;;;;;;;;21.98;54.29;99704.66;5003242;28;7080;-76
2022/06/08 10:59:03;;;;;;;;;;;;;;;21.96;54.69;99709.03;5012880;28;6886;-76
2022/06/08 11:01:50;;;;;;;;;;;;;;;21.95;55.08;99702.09;5016604;28;7198;-76
2022/06/08 11:04:30;;;;;;;;;;;;;;;21.96;54.99;99703.81;5012755;28;6890;-76
2022/06/08 11:07:13;;;;;;;;;;;;;;;21.97;55.24;99700.31;5008885;28;7191;-76
2022/06/08 11:09:45;;;;;;;;;;;;;;;21.97;55.68;99695.09;5015680;28;6803;-76
2022/06/08 11:12:10;;;;;;;;;;;;;;;21.98;55.78;99689.00;5011723;28;6986;-76
2022/06/08 11:14:48;;;;;;;;;;;;;;;21.99;55.83;99688.13;5011715;28;7912;-76
2022/06/08 11:17:39;;;;;;;;;;;;;;;22.04;56.33;99686.34;5014191;28;6872;-76
2022/06/08 11:20:29;;;;;;;;;;;;;;;22.10;56.51;99685.41;5008945;28;7361;-76
2022/06/08 11:23:31;;;;;;;;;;;;;;;22.13;56.30;99677.53;5012421;28;6819;-76
2022/06/08 11:26:14;;;;;;;;;;;;;;;22.19;56.52;99679.22;5012692;28;7258;-76
2022/06/08 11:28:48;;;;;;;;;;;;;;;22.23;56.93;99675.69;5016723;28;6811;-76
2022/06/08 11:31:28;;;;;;;;;;;;;;;22.28;56.54;99671.28;5017434;28;7216;-76
2022/06/08 11:34:18;;;;;;;;;;;;;;;22.33;56.49;99671.22;5013290;28;6823;-77
2022/06/08 11:37:07;;;;;;;;;;;;;;;22.32;56.68;99666.88;5012619;28;7137;-76
2022/06/08 11:40:10;;;;;;;;;;;;;;;22.29;56.75;99673.00;5008988;28;7273;-76
2022/06/08 11:42:53;;;;;;;;;;;;;;;22.21;56.76;99667.00;5012740;28;6828;-76
2022/06/08 11:45:36;;;;;;;;;;;;;;;22.18;57.01;99661.84;5031621;28;6941;-77
2022/06/08 11:48:19;;;;;;;;;;;;;;;22.18;57.26;99656.63;5029384;28;6803;-77
2022/06/08 11:50:47;;;;;;;;;;;;;;;22.19;57.39;99659.22;5029303;28;6811;-77
2022/06/08 11:53:33;;;;;;;;;;;;;;;22.26;57.27;99656.50;5016985;28;8263;-77
2022/06/08 11:56:24;;;;;;;;;;;;;;;22.28;57.27;99655.63;4997198;28;7933;-77
2022/06/08 11:58:55;;;;;;;;;;;;;;;22.28;57.35;99646.94;5013497;28;7246;-77
2022/06/08 12:01:42;;;;;;;;;;;;;;;22.28;57.24;99647.78;4995049;28;6883;-77
2022/06/08 12:04:25;;;;;;;;;;;;;;;22.27;57.23;99646.06;5001183;28;6816;-77
2022/06/08 12:06:56;;;;;;;;;;;;;;;22.24;57.23;99640.00;5015749;28;8107;-77
2022/06/08 12:09:34;;;;;;;;;;;;;;;22.16;57.09;99640.13;5005974;28;7211;-77
2022/06/08 12:12:24;;;;;;;;;;;;;;;22.08;57.36;99650.66;4995607;28;6819;-77
2022/06/08 12:14:50;;;;;;;;;;;;;;;21.95;57.11;99655.13;5016591;28;6960;-77
2022/06/08 12:17:15;;;;;;;;;;;;;;;21.80;57.56;99650.94;5005673;28;6954;-77
2022/06/08 12:19:57;;;;;;;;;;;;;;;21.66;57.29;99645.84;5016877;28;6878;-77
2022/06/08 12:22:32;;;;;;;;;;;;;;;21.48;57.08;99663.38;5011006;28;6891;-77
2022/06/08 12:25:18;;;;;;;;;;;;;;;21.32;57.94;99653.94;5003117;28;6989;-77
2022/06/08 12:28:08;;;;;;;;;;;;;;;21.22;58.17;99650.56;5017386;28;6823;-77
2022/06/08 12:30:55;;;;;;;;;;;;;;;21.23;58.65;99642.72;5013172;28;8571;-77
2022/06/08 12:33:29;;;;;;;;;;;;;;;21.30;59.13;99640.06;5015101;28;7002;-77
2022/06/08 12:36:06;;;;;;;;;;;;;;;21.36;59.06;99646.09;5018739;28;7203;-77
2022/06/08 12:38:36;;;;;;;;;;;;;;;21.43;58.99;99641.69;5010370;28;6827;-77
2022/06/08 12:41:11;;;;;;;;;;;;;;;21.47;58.57;99637.31;5002824;28;6816;-77
2022/06/08 12:43:47;;;;;;;;;;;;;;;21.44;58.56;99640.84;5002157;28;7176;-76
2022/06/08 12:46:13;;;;;;;;;;;;;;;21.34;58.10;99637.44;5021582;28;6832;-76
2022/06/08 12:48:48;;;;;;;;;;;;;;;21.24;58.19;99638.38;5013615;28;6949;-76
2022/06/08 12:51:29;;;;;;;;;;;;;;;21.09;57.93;99639.38;5016544;28;6815;-76
2022/06/08 12:53:57;;;;;;;;;;;;;;;20.93;57.96;99636.03;5009008;28;6819;-76
2022/06/08 12:56:24;;;;;;;;;;;;;;;20.79;58.01;99638.69;5012664;28;6879;-77
2022/06/08 12:58:52;;;;;;;;;;;;;;;20.73;59.06;99636.09;4994246;28;6978;-78
2022/06/08 13:01:21;;;;;;;;;;;;;;;20.76;59.14;99638.69;4994495;28;6803;-79
2022/06/08 13:03:47;;;;;;;;;;;;;;;20.80;58.99;99632.59;4988205;28;6808;-79
2022/06/08 13:06:13;;;;;;;;;;;;;;;20.87;59.64;99628.25;4994656;28;7030;-79
2022/06/08 13:08:40;;;;;;;;;;;;;;;20.97;59.45;99629.91;4999142;28;7134;-79
2022/06/08 13:11:19;;;;;;;;;;;;;;;21.03;59.29;99629.00;5013658;28;6906;-79
2022/06/08 13:13:46;;;;;;;;;;;;;;;21.03;59.16;99629.88;4976312;28;7000;-79
2022/06/08 13:16:21;;;;;;;;;;;;;;;21.01;59.31;99628.13;4991269;28;8634;-79
2022/06/08 13:18:52;;;;;;;;;;;;;;;20.99;59.12;99625.53;5008622;28;6828;-79
2022/06/08 13:21:19;;;;;;;;;;;;;;;20.95;59.21;99627.28;5018195;28;7226;-79
2022/06/08 13:23:45;;;;;;;;;;;;;;;20.90;59.08;99626.47;5016095;28;6800;-78
2022/06/08 13:26:27;;;;;;;;;;;;;;;20.83;59.06;99624.78;5015594;28;7005;-79
2022/06/08 13:28:56;;;;;;;;;;;;;;;20.77;59.43;99627.41;5015943;28;7306;-79
2022/06/08 13:31:23;;;;;;;;;;;;;;;20.72;59.63;99627.44;4998198;28;7075;-78
2022/06/08 13:34:05;;;;;;;;;;;;;;;20.70;59.46;99623.97;5014036;28;7311;-78
2022/06/08 13:36:38;;;;;;;;;;;;;;;20.67;59.39;99631.81;5016535;28;6812;-78
2022/06/08 13:39:22;;;;;;;;;;;;;;;20.65;59.95;99626.59;5014518;28;6984;-78
2022/06/08 13:41:53;;;;;;;;;;;;;;;20.64;59.71;99619.66;5019775;28;8216;-78
2022/06/08 13:44:31;;;;;;;;;;;;;;;20.63;59.73;99627.50;5016887;28;7058;-78
2022/06/08 13:47:19;;;;;;;;;;;;;;;20.60;59.85;99630.97;5025101;28;7056;-78